Terminal Aerodrome Forecast
Issued by NWS Cleveland, OH

Home | Current Version | Previous Version | Graphics & Text | Print | Product List | Glossary Off
Versions: 1 2 3 4 5 6 7 8 9 10 11 12 13 14 15 16 17 18 19 20 21 22 23 24 25

000
FTUS41 KCLE 200900 AAB
TAFTOL
TAF AMD
KTOL 200905Z 2009/2106 23015G25KT P6SM BKN015 OVC025
     FM201300 23018G28KT P6SM SCT015 OVC025
      TEMPO 2013/2016 3SM -SHRA OVC015
     FM201600 24022G32KT P6SM OVC015
     FM202200 26015G25KT P6SM OVC035
     FM210200 26012KT P6SM OVC050=

USA.gov is the U.S. government's official web portal to all federal, state and local government web resources and services.